sensor_id;sensor_type;location;lat;lon;timestamp;P1;durP1;ratioP1;P2;durP2;ratioP2
42666;SDS011;28280;49.646;14.130;2023-09-19T00:10:34;1.88;;;0.88;;
42666;SDS011;28280;49.646;14.130;2023-09-19T00:21:01;1.95;;;0.70;;
42666;SDS011;28280;49.646;14.130;2023-09-19T00:31:22;1.10;;;0.68;;
42666;SDS011;28280;49.646;14.130;2023-09-19T00:41:44;1.35;;;0.70;;
42666;SDS011;28280;49.646;14.130;2023-09-19T00:52:05;1.05;;;0.80;;
42666;SDS011;28280;49.646;14.130;2023-09-19T01:02:27;1.48;;;0.75;;
42666;SDS011;28280;49.646;14.130;2023-09-19T01:12:54;0.95;;;0.70;;
42666;SDS011;28280;49.646;14.130;2023-09-19T01:23:39;1.10;;;0.63;;
42666;SDS011;28280;49.646;14.130;2023-09-19T01:34:02;1.08;;;0.73;;
42666;SDS011;28280;49.646;14.130;2023-09-19T01:44:30;1.00;;;0.80;;
42666;SDS011;28280;49.646;14.130;2023-09-19T01:54:59;1.30;;;0.70;;
42666;SDS011;28280;49.646;14.130;2023-09-19T02:05:28;1.60;;;0.70;;
42666;SDS011;28280;49.646;14.130;2023-09-19T02:15:50;0.95;;;0.75;;
42666;SDS011;28280;49.646;14.130;2023-09-19T02:26:11;2.03;;;0.80;;
42666;SDS011;28280;49.646;14.130;2023-09-19T02:36:35;1.48;;;0.93;;
42666;SDS011;28280;49.646;14.130;2023-09-19T02:46:57;1.13;;;0.90;;
42666;SDS011;28280;49.646;14.130;2023-09-19T02:57:18;1.17;;;0.80;;
42666;SDS011;28280;49.646;14.130;2023-09-19T03:07:40;1.95;;;0.90;;
42666;SDS011;28280;49.646;14.130;2023-09-19T03:18:04;2.50;;;0.80;;
42666;SDS011;28280;49.646;14.130;2023-09-19T03:28:27;0.90;;;0.70;;
42666;SDS011;28280;49.646;14.130;2023-09-19T03:38:51;1.33;;;1.00;;
42666;SDS011;28280;49.646;14.130;2023-09-19T03:49:13;2.70;;;1.00;;
42666;SDS011;28280;49.646;14.130;2023-09-19T03:59:35;2.72;;;0.93;;
42666;SDS011;28280;49.646;14.130;2023-09-19T04:09:57;1.40;;;0.93;;
42666;SDS011;28280;49.646;14.130;2023-09-19T04:20:19;1.33;;;0.90;;
42666;SDS011;28280;49.646;14.130;2023-09-19T04:30:41;1.80;;;1.00;;
42666;SDS011;28280;49.646;14.130;2023-09-19T04:41:03;3.05;;;1.40;;
42666;SDS011;28280;49.646;14.130;2023-09-19T04:51:24;2.60;;;1.17;;
42666;SDS011;28280;49.646;14.130;2023-09-19T05:01:46;1.75;;;1.00;;
42666;SDS011;28280;49.646;14.130;2023-09-19T05:12:07;1.65;;;1.10;;
42666;SDS011;28280;49.646;14.130;2023-09-19T05:22:31;1.55;;;1.10;;
42666;SDS011;28280;49.646;14.130;2023-09-19T05:32:53;2.85;;;1.05;;
42666;SDS011;28280;49.646;14.130;2023-09-19T05:43:15;1.83;;;1.10;;
42666;SDS011;28280;49.646;14.130;2023-09-19T05:53:37;2.13;;;1.00;;
42666;SDS011;28280;49.646;14.130;2023-09-19T06:03:59;1.83;;;1.10;;
42666;SDS011;28280;49.646;14.130;2023-09-19T06:14:21;1.77;;;1.05;;
42666;SDS011;28280;49.646;14.130;2023-09-19T06:24:44;1.50;;;1.08;;
42666;SDS011;28280;49.646;14.130;2023-09-19T06:35:07;1.80;;;0.93;;
42666;SDS011;28280;49.646;14.130;2023-09-19T06:45:29;1.60;;;1.08;;
42666;SDS011;28280;49.646;14.130;2023-09-19T06:55:53;2.53;;;1.05;;
42666;SDS011;28280;49.646;14.130;2023-09-19T07:06:15;2.65;;;1.50;;
42666;SDS011;28280;49.646;14.130;2023-09-19T07:16:36;2.70;;;1.30;;
42666;SDS011;28280;49.646;14.130;2023-09-19T07:26:58;2.65;;;1.48;;
42666;SDS011;28280;49.646;14.130;2023-09-19T07:37:19;1.38;;;1.00;;
42666;SDS011;28280;49.646;14.130;2023-09-19T07:47:43;1.38;;;1.05;;
42666;SDS011;28280;49.646;14.130;2023-09-19T07:58:07;2.03;;;1.13;;
42666;SDS011;28280;49.646;14.130;2023-09-19T08:08:28;2.20;;;1.30;;
42666;SDS011;28280;49.646;14.130;2023-09-19T08:18:49;1.88;;;1.13;;
42666;SDS011;28280;49.646;14.130;2023-09-19T08:29:14;2.40;;;1.17;;
42666;SDS011;28280;49.646;14.130;2023-09-19T08:39:35;2.33;;;1.20;;
42666;SDS011;28280;49.646;14.130;2023-09-19T08:50:04;1.40;;;1.00;;
42666;SDS011;28280;49.646;14.130;2023-09-19T09:00:35;4.07;;;1.30;;
42666;SDS011;28280;49.646;14.130;2023-09-19T09:10:57;1.60;;;1.05;;
42666;SDS011;28280;49.646;14.130;2023-09-19T09:21:18;3.40;;;1.33;;
42666;SDS011;28280;49.646;14.130;2023-09-19T09:31:42;1.60;;;1.07;;
42666;SDS011;28280;49.646;14.130;2023-09-19T09:42:05;1.50;;;1.02;;
42666;SDS011;28280;49.646;14.130;2023-09-19T09:52:27;2.03;;;1.02;;
42666;SDS011;28280;49.646;14.130;2023-09-19T10:02:53;3.25;;;1.20;;
42666;SDS011;28280;49.646;14.130;2023-09-19T10:13:14;1.30;;;0.98;;
42666;SDS011;28280;49.646;14.130;2023-09-19T10:34:02;3.28;;;1.05;;
42666;SDS011;28280;49.646;14.130;2023-09-19T10:44:27;1.30;;;1.05;;
42666;SDS011;28280;49.646;14.130;2023-09-19T10:54:50;2.65;;;1.17;;
42666;SDS011;28280;49.646;14.130;2023-09-19T11:05:15;1.92;;;1.30;;
42666;SDS011;28280;49.646;14.130;2023-09-19T11:47:35;1.50;;;1.10;;
42666;SDS011;28280;49.646;14.130;2023-09-19T11:57:57;1.50;;;1.00;;
42666;SDS011;28280;49.646;14.130;2023-09-19T12:08:19;2.70;;;1.30;;
42666;SDS011;28280;49.646;14.130;2023-09-19T12:18:45;3.10;;;1.38;;
42666;SDS011;28280;49.646;14.130;2023-09-19T12:29:14;1.50;;;1.30;;
42666;SDS011;28280;49.646;14.130;2023-09-19T12:39:41;1.58;;;1.00;;
42666;SDS011;28280;49.646;14.130;2023-09-19T13:00:38;1.60;;;1.10;;
42666;SDS011;28280;49.646;14.130;2023-09-19T13:11:02;1.70;;;1.00;;
42666;SDS011;28280;49.646;14.130;2023-09-19T13:21:33;1.42;;;1.10;;
42666;SDS011;28280;49.646;14.130;2023-09-19T13:32:04;2.35;;;1.13;;
42666;SDS011;28280;49.646;14.130;2023-09-19T13:42:25;2.00;;;1.08;;
42666;SDS011;28280;49.646;14.130;2023-09-19T13:52:51;1.90;;;1.30;;
42666;SDS011;28280;49.646;14.130;2023-09-19T14:03:12;2.90;;;1.40;;
42666;SDS011;28280;49.646;14.130;2023-09-19T14:13:34;1.65;;;1.00;;
42666;SDS011;28280;49.646;14.130;2023-09-19T14:23:55;1.60;;;1.15;;
42666;SDS011;28280;49.646;14.130;2023-09-19T14:34:16;1.90;;;1.30;;
42666;SDS011;28280;49.646;14.130;2023-09-19T14:44:38;1.42;;;1.10;;
42666;SDS011;28280;49.646;14.130;2023-09-19T14:55:00;1.60;;;1.10;;
42666;SDS011;28280;49.646;14.130;2023-09-19T15:05:22;2.00;;;1.20;;
42666;SDS011;28280;49.646;14.130;2023-09-19T15:15:43;2.00;;;0.90;;
42666;SDS011;28280;49.646;14.130;2023-09-19T15:36:32;1.48;;;1.23;;
42666;SDS011;28280;49.646;14.130;2023-09-19T15:46:54;2.45;;;1.25;;
42666;SDS011;28280;49.646;14.130;2023-09-19T15:57:15;1.83;;;1.23;;
42666;SDS011;28280;49.646;14.130;2023-09-19T16:07:36;2.00;;;1.38;;
42666;SDS011;28280;49.646;14.130;2023-09-19T16:17:59;2.30;;;1.30;;
42666;SDS011;28280;49.646;14.130;2023-09-19T16:28:21;1.80;;;1.40;;
42666;SDS011;28280;49.646;14.130;2023-09-19T16:38:43;2.05;;;1.20;;
42666;SDS011;28280;49.646;14.130;2023-09-19T16:49:05;1.73;;;1.30;;
42666;SDS011;28280;49.646;14.130;2023-09-19T16:59:27;2.42;;;1.48;;
42666;SDS011;28280;49.646;14.130;2023-09-19T17:09:48;2.20;;;1.45;;
42666;SDS011;28280;49.646;14.130;2023-09-19T17:20:10;1.98;;;1.13;;
42666;SDS011;28280;49.646;14.130;2023-09-19T17:30:32;1.58;;;1.20;;
42666;SDS011;28280;49.646;14.130;2023-09-19T17:40:53;1.83;;;1.40;;
42666;SDS011;28280;49.646;14.130;2023-09-19T17:51:15;2.45;;;1.40;;
42666;SDS011;28280;49.646;14.130;2023-09-19T18:01:41;2.10;;;1.23;;
42666;SDS011;28280;49.646;14.130;2023-09-19T18:12:05;2.42;;;1.52;;
42666;SDS011;28280;49.646;14.130;2023-09-19T18:22:27;1.45;;;1.23;;
42666;SDS011;28280;49.646;14.130;2023-09-19T18:32:49;1.55;;;1.10;;
42666;SDS011;28280;49.646;14.130;2023-09-19T18:43:17;1.45;;;1.15;;
42666;SDS011;28280;49.646;14.130;2023-09-19T18:53:38;1.55;;;1.30;;
42666;SDS011;28280;49.646;14.130;2023-09-19T19:04:02;2.40;;;1.33;;
42666;SDS011;28280;49.646;14.130;2023-09-19T19:14:23;1.42;;;1.08;;
42666;SDS011;28280;49.646;14.130;2023-09-19T19:24:44;2.28;;;1.50;;
42666;SDS011;28280;49.646;14.130;2023-09-19T19:35:06;2.33;;;1.35;;
42666;SDS011;28280;49.646;14.130;2023-09-19T19:45:27;1.80;;;1.30;;
42666;SDS011;28280;49.646;14.130;2023-09-19T19:55:49;1.83;;;1.23;;
42666;SDS011;28280;49.646;14.130;2023-09-19T20:06:12;1.73;;;1.08;;
42666;SDS011;28280;49.646;14.130;2023-09-19T20:16:34;2.28;;;1.40;;
42666;SDS011;28280;49.646;14.130;2023-09-19T20:26:57;1.90;;;1.20;;
42666;SDS011;28280;49.646;14.130;2023-09-19T20:37:21;2.93;;;1.23;;
42666;SDS011;28280;49.646;14.130;2023-09-19T20:47:43;3.58;;;1.60;;
42666;SDS011;28280;49.646;14.130;2023-09-19T20:58:05;2.03;;;1.17;;
42666;SDS011;28280;49.646;14.130;2023-09-19T21:08:26;1.42;;;1.15;;
42666;SDS011;28280;49.646;14.130;2023-09-19T21:18:47;2.60;;;1.35;;
42666;SDS011;28280;49.646;14.130;2023-09-19T21:29:10;2.20;;;1.00;;
42666;SDS011;28280;49.646;14.130;2023-09-19T21:39:31;1.63;;;1.10;;
42666;SDS011;28280;49.646;14.130;2023-09-19T21:49:53;2.20;;;1.30;;
42666;SDS011;28280;49.646;14.130;2023-09-19T22:00:15;2.70;;;1.10;;
42666;SDS011;28280;49.646;14.130;2023-09-19T22:10:51;1.85;;;1.20;;
42666;SDS011;28280;49.646;14.130;2023-09-19T22:21:13;1.83;;;1.20;;
42666;SDS011;28280;49.646;14.130;2023-09-19T22:31:39;1.90;;;1.30;;
42666;SDS011;28280;49.646;14.130;2023-09-19T22:42:03;1.83;;;1.33;;
42666;SDS011;28280;49.646;14.130;2023-09-19T22:52:32;2.10;;;1.38;;
42666;SDS011;28280;49.646;14.130;2023-09-19T23:02:57;2.22;;;1.27;;
42666;SDS011;28280;49.646;14.130;2023-09-19T23:13:19;3.15;;;1.60;;
42666;SDS011;28280;49.646;14.130;2023-09-19T23:23:48;2.47;;;1.30;;
42666;SDS011;28280;49.646;14.130;2023-09-19T23:34:13;2.55;;;1.38;;
42666;SDS011;28280;49.646;14.130;2023-09-19T23:44:34;5.17;;;1.20;;
42666;SDS011;28280;49.646;14.130;2023-09-19T23:54:56;2.33;;;1.30;;
